Time;durP1;ratioP1;P1;durP2;ratioP2;P2;SDS_P1;SDS_P2;PMS_P1;PMS_P2;Temp;Humidity;BMP_temperature;BMP_pressure;BME280_temperature;BME280_humidity;BME280_pressure;Samples;Min_cycle;Max_cycle;Signal;HPM_P1;HPM_P2
2021/10/09 00:00:54;;;;;;;31.42;18.17;;;13.10;64.20;;;;;;5073068;28;20669;-67
2021/10/09 00:03:20;;;;;;;28.65;19.05;;;13.00;64.10;;;;;;5072839;28;20052;-67
2021/10/09 00:05:45;;;;;;;30.33;19.15;;;13.00;64.00;;;;;;5073049;28;20028;-66
2021/10/09 00:08:16;;;;;;;31.65;19.00;;;13.00;64.00;;;;;;5073293;28;20100;-66
2021/10/09 00:10:42;;;;;;;32.80;19.67;;;13.00;63.90;;;;;;5061343;28;20055;-66
2021/10/09 00:13:08;;;;;;;29.45;18.73;;;12.90;63.90;;;;;;5051547;28;20025;-66
2021/10/09 00:15:34;;;;;;;33.78;19.75;;;12.90;63.90;;;;;;5052854;28;20029;-66
2021/10/09 00:18:00;;;;;;;30.90;18.88;;;12.90;63.90;;;;;;5052818;28;20040;-67
2021/10/09 00:20:31;;;;;;;35.78;20.02;;;12.90;64.60;;;;;;5053527;28;20063;-66
2021/10/09 00:22:57;;;;;;;36.78;19.50;;;12.90;63.80;;;;;;5051434;28;20458;-66
2021/10/09 00:25:24;;;;;;;35.08;19.63;;;12.90;63.70;;;;;;5051694;28;20025;-66
2021/10/09 00:27:50;;;;;;;29.73;19.40;;;12.90;63.60;;;;;;5052131;28;20043;-66
2021/10/09 00:30:16;;;;;;;30.77;19.77;;;12.90;63.70;;;;;;5051979;28;20028;-66
2021/10/09 00:32:42;;;;;;;33.92;20.70;;;12.90;63.60;;;;;;5051403;28;20090;-66
2021/10/09 00:35:08;;;;;;;29.27;19.25;;;12.80;63.50;;;;;;5054394;28;20475;-66
2021/10/09 00:37:34;;;;;;;35.72;20.85;;;12.80;63.50;;;;;;5051740;28;20394;-66
2021/10/09 00:40:00;;;;;;;29.88;19.58;;;12.80;63.60;;;;;;5051781;28;20100;-66
2021/10/09 00:42:26;;;;;;;31.15;20.13;;;12.70;63.60;;;;;;5051572;28;20032;-66
2021/10/09 00:44:52;;;;;;;39.15;20.65;;;12.70;64.30;;;;;;5051728;28;20017;-66
2021/10/09 00:47:22;;;;;;;30.60;19.92;;;12.70;63.50;;;;;;5051792;28;20021;-66
2021/10/09 00:49:48;;;;;;;29.88;19.00;;;12.70;63.60;;;;;;5051794;28;20100;-66
2021/10/09 00:52:14;;;;;;;30.48;20.40;;;12.70;63.60;;;;;;5051447;28;20104;-66
2021/10/09 00:54:46;;;;;;;39.17;21.60;;;12.60;63.70;;;;;;5051509;28;20029;-66
2021/10/09 00:57:13;;;;;;;37.72;18.65;;;12.60;63.80;;;;;;5051654;28;20470;-66
2021/10/09 00:59:41;;;;;;;34.15;19.52;;;12.60;63.70;;;;;;5051636;28;20158;-66
2021/10/09 01:02:07;;;;;;;35.42;19.27;;;12.60;63.70;;;;;;5053586;28;20029;-66
2021/10/09 01:04:35;;;;;;;31.05;19.83;;;12.50;63.60;;;;;;5055043;28;20031;-66
2021/10/09 01:07:02;;;;;;;28.77;19.25;;;12.50;63.70;;;;;;5055157;28;20036;-67
2021/10/09 01:09:28;;;;;;;29.98;19.83;;;12.50;63.70;;;;;;5055254;28;20021;-66
2021/10/09 01:11:54;;;;;;;33.20;19.73;;;12.40;63.60;;;;;;5054875;28;20078;-66
2021/10/09 01:14:19;;;;;;;30.38;18.95;;;12.40;63.60;;;;;;5054904;28;20047;-66
2021/10/09 01:16:46;;;;;;;37.15;19.45;;;12.40;63.60;;;;;;5054779;28;20027;-66
2021/10/09 01:19:13;;;;;;;38.00;18.05;;;12.30;63.60;;;;;;5065669;28;20494;-66
2021/10/09 01:21:45;;;;;;;25.85;17.27;;;12.30;63.60;;;;;;5054946;28;20057;-66
2021/10/09 01:24:11;;;;;;;27.23;17.65;;;12.30;63.70;;;;;;5055072;28;20032;-66
2021/10/09 01:26:37;;;;;;;27.20;17.33;;;12.20;63.50;;;;;;5055405;28;20032;-66
2021/10/09 01:29:05;;;;;;;32.22;18.23;;;12.10;63.50;;;;;;5055754;28;20479;-67
2021/10/09 01:31:32;;;;;;;31.75;19.38;;;12.10;63.60;;;;;;5075214;28;20028;-66
2021/10/09 01:33:58;;;;;;;30.88;19.33;;;12.10;63.60;;;;;;5075294;28;20085;-66
2021/10/09 01:36:32;;;;;;;30.30;18.63;;;12.00;63.60;;;;;;5072007;28;20028;-66
2021/10/09 01:38:59;;;;;;;31.23;17.92;;;12.00;63.60;;;;;;5055425;28;20025;-66
2021/10/09 01:41:25;;;;;;;32.80;18.35;;;11.90;63.70;;;;;;5060460;28;20047;-66
2021/10/09 01:43:52;;;;;;;26.55;17.30;;;11.90;63.70;;;;;;5056695;28;20032;-66
2021/10/09 01:46:17;;;;;;;28.25;17.70;;;11.80;63.80;;;;;;5069557;28;20017;-66
2021/10/09 01:48:44;;;;;;;30.95;17.52;;;11.80;63.90;;;;;;5057097;28;20080;-66
2021/10/09 01:51:10;;;;;;;27.77;17.52;;;11.80;64.00;;;;;;5065231;28;20107;-66
2021/10/09 01:53:37;;;;;;;27.42;16.88;;;11.70;63.90;;;;;;5072133;28;20438;-66
2021/10/09 01:56:05;;;;;;;35.45;19.58;;;11.60;63.90;;;;;;5058523;28;20032;-66
2021/10/09 01:58:31;;;;;;;32.75;20.30;;;11.60;63.80;;;;;;5059457;28;20035;-66
2021/10/09 02:00:57;;;;;;;35.83;19.15;;;11.60;63.80;;;;;;5074350;28;20103;-66
2021/10/09 02:03:22;;;;;;;34.08;20.13;;;11.50;63.90;;;;;;5072870;28;20398;-66
2021/10/09 02:05:49;;;;;;;31.63;19.92;;;11.50;63.90;;;;;;5070677;28;20120;-66
2021/10/09 02:08:15;;;;;;;32.00;18.00;;;11.50;63.90;;;;;;5072423;28;20402;-66
2021/10/09 02:10:50;;;;;;;33.65;18.73;;;11.50;64.00;;;;;;5073769;28;20428;-66
2021/10/09 02:13:21;;;;;;;30.85;18.63;;;11.40;64.00;;;;;;5072174;28;20454;-66
2021/10/09 02:16:04;;;;;;;37.97;19.98;;;11.40;63.90;;;;;;5073692;28;20111;-65
2021/10/09 02:26:24;;;;;;;37.08;20.25;;;11.30;63.90;;;;;;5054649;28;20121;-66
2021/10/09 02:28:50;;;;;;;38.70;20.58;;;11.30;63.90;;;;;;5074010;28;20029;-65
2021/10/09 02:31:16;;;;;;;38.72;20.23;;;11.30;63.90;;;;;;5073654;28;20035;-65
2021/10/09 02:33:42;;;;;;;34.63;19.17;;;11.20;63.90;;;;;;5073013;28;20032;-65
2021/10/09 02:36:07;;;;;;;40.05;20.02;;;11.20;63.90;;;;;;5072556;28;20101;-65
2021/10/09 02:38:33;;;;;;;32.60;19.23;;;11.20;63.90;;;;;;5074512;28;20031;-65
2021/10/09 02:40:59;;;;;;;36.75;19.73;;;11.10;63.80;;;;;;5055006;28;20119;-65
2021/10/09 02:43:25;;;;;;;32.60;19.25;;;11.10;63.90;;;;;;5054306;28;20029;-65
2021/10/09 02:45:50;;;;;;;49.45;20.85;;;11.10;63.90;;;;;;5054138;28;20017;-65
2021/10/09 02:48:16;;;;;;;32.40;17.65;;;11.00;63.90;;;;;;5073695;28;20028;-65
2021/10/09 02:50:44;;;;;;;29.92;18.25;;;11.00;64.00;;;;;;5073732;28;20024;-65
2021/10/09 02:53:11;;;;;;;33.13;18.95;;;11.00;64.10;;;;;;5070896;28;20101;-65
2021/10/09 02:55:36;;;;;;;27.80;17.02;;;11.00;64.00;;;;;;5054140;28;20171;-65
2021/10/09 02:58:02;;;;;;;36.67;20.30;;;11.00;64.10;;;;;;5053902;28;20480;-65
2021/10/09 03:00:28;;;;;;;34.58;18.98;;;10.90;64.00;;;;;;5054080;28;20046;-65
2021/10/09 03:02:54;;;;;;;30.00;17.95;;;10.90;64.10;;;;;;5053586;28;20048;-65
2021/10/09 03:05:20;;;;;;;29.42;17.90;;;10.90;64.20;;;;;;5053743;28;20171;-65
2021/10/09 03:07:46;;;;;;;35.90;20.27;;;10.80;64.20;;;;;;5054013;28;20360;-65
2021/10/09 03:10:12;;;;;;;27.52;16.90;;;10.80;64.20;;;;;;5053630;28;20028;-65
2021/10/09 03:12:38;;;;;;;32.15;18.75;;;10.80;64.20;;;;;;5053883;28;20029;-65
2021/10/09 03:15:05;;;;;;;32.47;18.38;;;10.80;64.30;;;;;;5053660;28;20355;-66
2021/10/09 03:17:31;;;;;;;26.33;16.25;;;10.70;64.30;;;;;;5053862;28;20037;-65
2021/10/09 03:19:57;;;;;;;32.10;17.33;;;10.70;64.20;;;;;;5052567;28;20116;-65
2021/10/09 03:22:23;;;;;;;33.95;16.77;;;10.70;64.30;;;;;;5053491;28;20107;-65
2021/10/09 03:24:48;;;;;;;30.98;18.00;;;10.60;64.30;;;;;;5053625;28;20063;-64
2021/10/09 03:27:14;;;;;;;32.83;18.05;;;10.60;64.40;;;;;;5053871;28;20087;-65
2021/10/09 03:29:40;;;;;;;34.25;18.88;;;10.60;64.50;;;;;;5053358;28;20017;-65
2021/10/09 03:32:06;;;;;;;32.03;18.90;;;10.50;64.70;;;;;;5053382;28;20021;-65
2021/10/09 03:34:35;;;;;;;29.33;17.13;;;10.50;64.70;;;;;;5053103;28;20104;-65
2021/10/09 03:37:06;;;;;;;30.45;18.70;;;10.50;64.80;;;;;;5055864;28;20170;-65
2021/10/09 03:39:34;;;;;;;35.75;19.70;;;10.50;64.90;;;;;;5072765;28;20020;-65
2021/10/09 03:42:06;;;;;;;30.65;19.17;;;10.50;65.00;;;;;;5073305;28;20482;-65
2021/10/09 03:44:36;;;;;;;30.05;18.10;;;10.50;65.00;;;;;;5056016;28;20133;-65
2021/10/09 03:47:30;;;;;;;28.90;16.20;;;10.40;65.00;;;;;;5053020;28;20025;-65
2021/10/09 03:52:36;;;;;;;24.92;15.65;;;10.40;65.60;;;;;;5052988;28;20021;-65
2021/10/09 03:55:05;;;;;;;28.95;16.70;;;10.40;64.80;;;;;;5053088;28;20111;-65
2021/10/09 03:57:31;;;;;;;26.23;14.45;;;10.40;64.90;;;;;;5052944;28;20506;-65
2021/10/09 03:59:57;;;;;;;23.85;15.20;;;10.30;64.90;;;;;;5052549;28;20025;-65
2021/10/09 04:02:22;;;;;;;29.15;14.73;;;10.30;64.90;;;;;;5052514;28;20021;-65
2021/10/09 04:04:48;;;;;;;22.95;14.02;;;10.30;64.90;;;;;;5052778;28;20037;-65
2021/10/09 04:07:14;;;;;;;26.20;15.85;;;10.30;64.80;;;;;;5053056;28;20079;-65
2021/10/09 04:09:41;;;;;;;27.80;16.25;;;10.30;64.90;;;;;;5052901;28;20041;-65
2021/10/09 04:12:07;;;;;;;26.63;16.23;;;10.20;64.90;;;;;;5052714;28;20104;-65
2021/10/09 04:14:33;;;;;;;25.08;15.70;;;10.20;65.10;;;;;;5052800;28;20033;-65
2021/10/09 04:16:58;;;;;;;27.63;16.27;;;10.10;65.10;;;;;;5052801;28;20491;-65
2021/10/09 04:19:24;;;;;;;32.28;16.60;;;10.10;65.10;;;;;;5052762;28;20033;-65
2021/10/09 04:21:50;;;;;;;26.02;17.15;;;10.10;65.20;;;;;;5052900;28;20053;-65
2021/10/09 04:24:18;;;;;;;33.90;16.63;;;10.10;65.40;;;;;;5052509;28;20043;-65
2021/10/09 04:26:44;;;;;;;26.25;15.23;;;10.10;65.50;;;;;;5052783;28;20017;-65
2021/10/09 04:29:10;;;;;;;29.20;17.08;;;10.10;65.40;;;;;;5051499;28;20025;-65
2021/10/09 04:31:36;;;;;;;27.38;15.45;;;10.00;66.20;;;;;;5051271;28;20029;-64
2021/10/09 04:34:02;;;;;;;24.50;15.05;;;10.00;65.50;;;;;;5052693;28;20033;-65
2021/10/09 04:36:28;;;;;;;34.97;17.35;;;10.00;65.40;;;;;;5053812;28;20021;-65
2021/10/09 04:38:53;;;;;;;31.73;16.65;;;10.00;65.50;;;;;;5055602;28;20025;-65
2021/10/09 04:41:19;;;;;;;25.67;15.23;;;10.00;65.60;;;;;;5055546;28;20482;-65
2021/10/09 04:43:45;;;;;;;34.95;16.90;;;10.00;65.70;;;;;;5056661;28;20405;-65
2021/10/09 04:46:11;;;;;;;23.85;14.68;;;9.90;65.60;;;;;;5056749;28;20556;-65
2021/10/09 04:48:37;;;;;;;23.42;15.40;;;9.90;65.60;;;;;;5056555;28;20021;-65
2021/10/09 04:51:03;;;;;;;27.23;15.98;;;9.90;65.60;;;;;;5056310;28;20360;-65
2021/10/09 04:53:29;;;;;;;23.25;13.75;;;9.90;65.60;;;;;;5056590;28;20056;-65
2021/10/09 04:55:55;;;;;;;25.17;14.95;;;9.90;65.50;;;;;;5056525;28;20435;-65
2021/10/09 04:58:21;;;;;;;24.05;14.55;;;9.90;65.50;;;;;;5056437;28;20108;-65
2021/10/09 05:00:48;;;;;;;29.63;14.98;;;9.90;65.50;;;;;;5056583;28;20037;-65
2021/10/09 05:03:15;;;;;;;27.85;14.70;;;9.90;65.50;;;;;;5056095;28;20115;-65
2021/10/09 05:05:44;;;;;;;26.27;14.85;;;9.90;65.60;;;;;;5056387;28;20021;-65
2021/10/09 05:08:09;;;;;;;29.33;16.92;;;9.80;65.60;;;;;;5072194;28;20050;-65
2021/10/09 05:10:35;;;;;;;31.83;16.48;;;9.80;65.80;;;;;;5076168;28;20470;-65
2021/10/09 05:13:01;;;;;;;30.95;16.10;;;9.80;65.90;;;;;;5074924;28;20029;-65
2021/10/09 05:15:27;;;;;;;28.08;15.93;;;9.80;65.90;;;;;;5076093;28;20390;-64
2021/10/09 05:17:53;;;;;;;27.30;16.55;;;9.80;65.90;;;;;;5076057;28;20412;-64
2021/10/09 05:20:18;;;;;;;26.90;15.40;;;9.70;65.90;;;;;;5076098;28;20078;-64
2021/10/09 05:22:45;;;;;;;27.35;15.98;;;9.70;65.90;;;;;;5075977;28;20474;-64
2021/10/09 05:25:12;;;;;;;36.50;17.98;;;9.70;66.00;;;;;;5075473;28;20103;-64
2021/10/09 05:27:39;;;;;;;27.02;16.05;;;9.70;66.00;;;;;;5075844;28;20094;-64
2021/10/09 05:30:08;;;;;;;37.55;17.85;;;9.70;66.10;;;;;;5075803;28;20170;-64
2021/10/09 05:32:36;;;;;;;33.97;19.05;;;9.70;66.10;;;;;;5074871;28;20024;-65
2021/10/09 05:35:03;;;;;;;32.95;18.50;;;9.70;66.20;;;;;;5073489;28;20025;-65
2021/10/09 05:37:31;;;;;;;35.22;19.63;;;9.70;66.30;;;;;;5075647;28;20036;-64
2021/10/09 05:39:58;;;;;;;36.58;18.95;;;9.70;66.30;;;;;;5067963;28;20013;-64
2021/10/09 05:42:24;;;;;;;38.63;19.00;;;9.70;66.30;;;;;;5055606;28;20060;-65
2021/10/09 05:44:51;;;;;;;35.88;17.98;;;9.70;66.30;;;;;;5055361;28;20053;-65
2021/10/09 05:47:16;;;;;;;40.70;18.58;;;9.80;66.30;;;;;;5054729;28;20017;-65
2021/10/09 05:49:43;;;;;;;30.98;19.33;;;9.80;66.20;;;;;;5054747;28;20025;-65
2021/10/09 05:52:19;;;;;;;35.25;16.95;;;9.90;66.10;;;;;;5055421;28;20021;-65
2021/10/09 05:54:53;;;;;;;24.42;15.95;;;9.90;66.10;;;;;;5055401;28;20032;-65
2021/10/09 05:57:35;;;;;;;;;;;9.90;66.10;;;;;;5055836;28;20040;-65
2021/10/09 06:37:28;;;;;;;30.35;17.83;;;10.80;64.90;;;;;;5072565;28;20039;-65
2021/10/09 06:42:02;;;;;;;30.23;18.13;;;10.90;63.90;;;;;;5074462;28;20353;-65
2021/10/09 06:44:01;;;;;;;28.52;15.45;;;11.10;63.80;;;;;;5074505;28;20085;-65
2021/10/09 06:59:53;;;;;;;32.08;16.80;;;11.50;62.50;;;;;;5069584;28;20398;-65
2021/10/09 07:02:19;;;;;;;28.95;16.55;;;11.60;62.40;;;;;;5073322;28;20085;-65
2021/10/09 07:04:44;;;;;;;28.73;15.32;;;11.60;62.40;;;;;;5073731;28;20036;-65
2021/10/09 07:07:16;;;;;;;28.70;14.02;;;11.70;62.70;;;;;;5066153;28;20029;-65
2021/10/09 07:09:42;;;;;;;28.48;13.70;;;11.80;62.70;;;;;;5053694;28;20032;-65
2021/10/09 07:12:08;;;;;;;19.95;12.43;;;11.90;62.80;;;;;;5053822;28;20021;-65
2021/10/09 07:14:34;;;;;;;21.52;13.00;;;12.00;62.70;;;;;;5059572;28;20066;-65
2021/10/09 07:16:59;;;;;;;21.23;13.18;;;12.00;62.50;;;;;;5073595;28;20020;-65
2021/10/09 07:19:25;;;;;;;22.88;12.85;;;12.10;62.30;;;;;;5073751;28;20306;-65
2021/10/09 07:21:51;;;;;;;26.83;15.18;;;12.20;61.90;;;;;;5073559;28;20024;-65
2021/10/09 07:24:17;;;;;;;22.60;14.48;;;12.30;61.00;;;;;;5061829;28;20032;-65
2021/10/09 07:26:42;;;;;;;31.15;16.08;;;12.30;60.50;;;;;;5053472;28;20155;-65
2021/10/09 07:29:08;;;;;;;32.17;15.98;;;12.40;60.20;;;;;;5053623;28;20226;-65
2021/10/09 07:31:34;;;;;;;29.60;16.20;;;12.50;59.80;;;;;;5053564;28;20025;-65
2021/10/09 07:34:00;;;;;;;32.63;15.13;;;12.50;60.10;;;;;;5053826;28;20032;-65
2021/10/09 07:36:25;;;;;;;26.55;14.52;;;12.60;59.80;;;;;;5053416;28;20024;-65
2021/10/09 07:38:53;;;;;;;27.95;14.95;;;12.70;59.70;;;;;;5053430;28;20082;-65
2021/10/09 07:41:19;;;;;;;28.90;15.05;;;12.80;59.50;;;;;;5053159;28;20044;-65
2021/10/09 07:43:44;;;;;;;30.65;15.98;;;12.90;59.20;;;;;;5053108;28;20094;-65
2021/10/09 07:46:10;;;;;;;25.05;15.20;;;13.00;58.90;;;;;;5055396;28;20048;-65
2021/10/09 07:48:36;;;;;;;27.40;14.50;;;13.10;58.90;;;;;;5056695;28;20021;-65
2021/10/09 07:51:04;;;;;;;23.95;13.73;;;13.30;58.60;;;;;;5053174;28;20025;-65
2021/10/09 07:53:30;;;;;;;20.92;12.07;;;13.40;58.80;;;;;;5062983;28;20052;-65
2021/10/09 07:55:56;;;;;;;23.55;12.50;;;13.50;59.20;;;;;;5054116;28;20505;-66
2021/10/09 07:58:21;;;;;;;21.15;12.63;;;13.70;59.50;;;;;;5063029;28;20032;-65
2021/10/09 08:00:47;;;;;;;24.05;12.35;;;13.90;58.90;;;;;;5072947;28;20074;-66
2021/10/09 08:03:13;;;;;;;23.30;11.70;;;14.10;58.50;;;;;;5072448;28;20056;-66
2021/10/09 08:05:39;;;;;;;29.27;13.20;;;14.30;58.30;;;;;;5072624;28;20390;-65
2021/10/09 08:08:05;;;;;;;21.63;11.95;;;14.50;57.70;;;;;;5072799;28;20031;-66
2021/10/09 08:10:31;;;;;;;20.85;11.88;;;14.70;57.50;;;;;;5070112;28;20480;-66
2021/10/09 08:12:57;;;;;;;23.67;12.02;;;14.90;56.80;;;;;;5064685;28;20024;-66
2021/10/09 08:15:22;;;;;;;19.42;11.27;;;15.10;55.70;;;;;;5066965;28;20020;-66
2021/10/09 08:17:48;;;;;;;21.20;11.85;;;15.30;56.00;;;;;;5070244;28;20503;-66
2021/10/09 08:20:15;;;;;;;19.23;11.75;;;15.50;55.80;;;;;;5062660;28;20173;-66
2021/10/09 08:22:49;;;;;;;25.15;11.70;;;15.70;55.60;;;;;;5063455;28;20055;-65
2021/10/09 08:41:00;;;;;;;22.73;11.00;;;16.60;52.20;;;;;;5059033;28;20081;-67
2021/10/09 08:43:26;;;;;;;26.17;11.65;;;16.60;52.50;;;;;;5055137;28;20041;-66
2021/10/09 08:45:51;;;;;;;23.83;11.75;;;16.70;52.00;;;;;;5052318;28;20105;-66
2021/10/09 08:48:18;;;;;;;23.30;11.75;;;16.80;51.90;;;;;;5052560;28;20032;-67
2021/10/09 08:50:45;;;;;;;30.75;14.13;;;16.80;51.50;;;;;;5071511;28;20024;-66
2021/10/09 08:53:11;;;;;;;19.83;12.57;;;16.90;50.50;;;;;;5069856;28;20504;-67
2021/10/09 08:55:45;;;;;;;25.45;13.23;;;16.90;51.10;;;;;;5052298;28;20401;-67
2021/10/09 08:58:33;;;;;;;28.08;12.20;;;16.90;50.30;;;;;;5060457;28;20466;-66
2021/10/09 09:03:59;;;;;;;25.50;11.85;;;16.90;50.60;;;;;;5064786;28;20040;-65
2021/10/09 09:25:16;;;;;;;18.95;11.95;;;16.80;50.50;;;;;;5072487;28;20056;-66
2021/10/09 09:33:52;;;;;;;21.17;12.77;;;16.50;50.20;;;;;;5057859;28;20107;-65
2021/10/09 09:39:11;;;;;;;25.17;13.38;;;16.50;51.00;;;;;;5057549;28;20179;-66
2021/10/09 09:41:50;;;;;;;25.08;13.65;;;16.50;50.40;;;;;;5054500;28;20040;-65
2021/10/09 09:44:18;;;;;;;29.25;13.35;;;16.40;50.50;;;;;;5054546;28;20021;-65
2021/10/09 09:47:06;;;;;;;29.20;13.07;;;16.50;51.00;;;;;;5054490;28;20032;-66
2021/10/09 09:49:31;;;;;;;25.00;13.20;;;16.50;51.20;;;;;;5054669;28;20028;-65
2021/10/09 09:51:57;;;;;;;24.67;14.13;;;16.60;51.00;;;;;;5066447;28;20359;-65
2021/10/09 09:54:27;;;;;;;28.92;14.00;;;16.60;50.70;;;;;;5074600;28;20377;-66
2021/10/09 09:56:57;;;;;;;27.67;13.95;;;16.60;50.50;;;;;;5056214;28;20025;-66
2021/10/09 09:59:31;;;;;;;22.27;13.88;;;16.60;50.70;;;;;;5054525;28;20104;-66
2021/10/09 10:02:04;;;;;;;26.33;14.60;;;16.60;50.60;;;;;;5072257;28;20028;-66
2021/10/09 10:04:35;;;;;;;25.02;14.50;;;16.60;50.00;;;;;;5063871;28;20179;-66
2021/10/09 10:07:03;;;;;;;22.88;13.07;;;16.60;49.50;;;;;;5054564;28;20041;-66
2021/10/09 10:09:30;;;;;;;22.35;13.15;;;16.70;50.10;;;;;;5054315;28;20021;-66
2021/10/09 10:12:02;;;;;;;22.42;12.52;;;16.70;51.20;;;;;;5054366;28;20029;-66
2021/10/09 10:14:29;;;;;;;24.23;13.07;;;16.70;50.30;;;;;;5054363;28;20057;-66
2021/10/09 10:16:56;;;;;;;23.73;12.43;;;16.80;50.40;;;;;;5054391;28;20497;-66
2021/10/09 10:19:50;;;;;;;22.55;12.90;;;16.80;50.50;;;;;;5054383;28;20115;-66
2021/10/09 10:22:17;;;;;;;27.60;13.98;;;16.90;50.30;;;;;;5053994;28;20025;-67
2021/10/09 10:24:45;;;;;;;27.35;12.70;;;16.90;49.80;;;;;;5062777;28;20032;-67
2021/10/09 10:27:33;;;;;;;25.58;13.85;;;16.90;50.40;;;;;;5074690;28;20103;-66
2021/10/09 10:30:14;;;;;;;28.08;14.10;;;17.00;50.70;;;;;;5074703;28;20028;-64
2021/10/09 10:32:57;;;;;;;22.65;12.55;;;17.00;50.40;;;;;;5074287;28;20099;-64
2021/10/09 10:35:32;;;;;;;27.55;13.27;;;17.00;50.40;;;;;;5073620;28;20044;-64
2021/10/09 10:38:09;;;;;;;25.13;13.38;;;17.00;50.20;;;;;;5074226;28;20063;-64
2021/10/09 10:40:46;;;;;;;22.70;12.13;;;17.10;49.90;;;;;;5074343;28;20027;-64
2021/10/09 10:46:06;;;;;;;25.30;13.25;;;17.10;49.90;;;;;;5054468;28;20028;-64
2021/10/09 10:48:46;;;;;;;27.20;12.75;;;17.10;50.00;;;;;;5054500;28;20025;-64
2021/10/09 10:52:25;;;;;;;23.73;14.02;;;17.20;49.60;;;;;;5054380;28;20048;-63
2021/10/09 10:56:58;;;;;;;26.95;12.05;;;17.20;49.10;;;;;;5054456;28;20107;-64
2021/10/09 11:02:21;;;;;;;22.52;12.02;;;17.20;49.00;;;;;;5053952;28;20035;-64
2021/10/09 11:05:00;;;;;;;18.90;11.43;;;17.20;49.70;;;;;;5053967;28;20500;-63
2021/10/09 11:07:29;;;;;;;16.35;11.30;;;17.30;49.90;;;;;;5054066;28;20021;-65
2021/10/09 11:10:01;;;;;;;20.63;11.60;;;17.40;50.00;;;;;;5053993;28;20021;-64
2021/10/09 11:12:30;;;;;;;18.25;10.63;;;17.50;50.00;;;;;;5053989;28;20017;-65
2021/10/09 11:15:08;;;;;;;31.83;13.82;;;17.60;49.90;;;;;;5052495;28;20064;-65
2021/10/09 11:17:40;;;;;;;28.85;13.73;;;17.70;49.20;;;;;;5053752;28;20087;-64
2021/10/09 11:20:08;;;;;;;22.75;11.40;;;17.80;48.90;;;;;;5053878;28;20023;-65
2021/10/09 11:22:45;;;;;;;23.00;14.27;;;17.90;49.60;;;;;;5053801;28;20025;-65
2021/10/09 11:25:22;;;;;;;26.70;15.02;;;18.00;49.20;;;;;;5053627;28;20021;-64
2021/10/09 11:27:48;;;;;;;24.95;13.65;;;18.00;48.80;;;;;;5053695;28;20025;-64
2021/10/09 11:30:14;;;;;;;24.65;13.13;;;18.10;49.00;;;;;;5053554;28;20055;-64
2021/10/09 11:32:43;;;;;;;24.52;12.85;;;18.20;49.10;;;;;;5053016;28;20131;-64
2021/10/09 11:35:11;;;;;;;23.27;13.45;;;18.20;48.50;;;;;;5053559;28;20390;-63
2021/10/09 11:37:49;;;;;;;27.23;13.90;;;18.30;48.10;;;;;;5053514;28;20021;-63
2021/10/09 11:40:40;;;;;;;29.30;15.30;;;18.40;48.50;;;;;;5053438;28;20021;-63
2021/10/09 11:43:29;;;;;;;28.15;14.35;;;18.50;48.60;;;;;;5052373;28;20025;-63
2021/10/09 11:56:45;;;;;;;20.17;13.93;;;18.70;48.20;;;;;;5053178;28;20469;-64
2021/10/09 11:59:13;;;;;;;24.90;15.32;;;18.70;48.40;;;;;;5053170;28;20021;-64
2021/10/09 12:01:44;;;;;;;24.90;15.73;;;18.70;48.20;;;;;;5053134;28;20047;-64
2021/10/09 12:04:23;;;;;;;25.00;14.75;;;18.70;48.30;;;;;;5052670;28;20103;-64
2021/10/09 12:07:10;;;;;;;21.38;13.50;;;18.70;48.50;;;;;;5053090;28;20025;-64
2021/10/09 12:09:46;;;;;;;23.13;14.48;;;18.70;48.10;;;;;;5052871;28;20017;-64
2021/10/09 12:12:22;;;;;;;25.63;14.02;;;18.70;48.20;;;;;;5053009;28;20478;-63
2021/10/09 12:14:52;;;;;;;26.75;14.82;;;18.70;48.20;;;;;;5052857;28;20028;-63
2021/10/09 12:17:22;;;;;;;25.92;13.65;;;18.70;48.00;;;;;;5053612;28;20378;-64
2021/10/09 12:20:03;;;;;;;28.00;15.13;;;18.70;48.10;;;;;;5053333;28;20104;-63
2021/10/09 12:22:41;;;;;;;26.20;13.48;;;18.70;48.00;;;;;;5052981;28;20028;-63
2021/10/09 12:25:22;;;;;;;29.38;14.30;;;18.70;48.30;;;;;;5052975;28;20028;-63
2021/10/09 12:27:55;;;;;;;26.95;14.05;;;18.80;48.30;;;;;;5052797;28;20017;-63
2021/10/09 12:30:32;;;;;;;19.40;12.68;;;18.80;47.40;;;;;;5052759;28;20025;-64
2021/10/09 12:32:59;;;;;;;26.77;14.27;;;18.80;47.70;;;;;;5052746;28;20017;-64
2021/10/09 12:35:30;;;;;;;25.45;13.48;;;18.80;46.90;;;;;;5052626;28;20021;-64
2021/10/09 12:38:08;;;;;;;29.13;12.90;;;18.80;46.80;;;;;;5052672;28;20107;-64
2021/10/09 12:40:37;;;;;;;25.63;11.18;;;18.80;46.40;;;;;;5052513;28;20031;-64
2021/10/09 12:43:05;;;;;;;18.90;10.43;;;18.80;46.70;;;;;;5052515;28;20031;-64
2021/10/09 12:45:31;;;;;;;19.20;10.50;;;18.80;46.70;;;;;;5052545;28;20029;-64
2021/10/09 12:47:58;;;;;;;28.17;14.48;;;18.80;46.00;;;;;;5052626;28;20021;-64
2021/10/09 12:50:27;;;;;;;18.15;10.18;;;18.70;45.10;;;;;;5052574;28;20092;-64
2021/10/09 12:52:53;;;;;;;23.67;9.73;;;18.70;44.40;;;;;;5052367;28;20383;-64
2021/10/09 12:55:28;;;;;;;20.35;10.45;;;18.70;45.40;;;;;;5052301;28;20027;-65
2021/10/09 12:57:58;;;;;;;;;;;18.70;44.30;;;;;;5054986;28;20035;-64
2021/10/09 13:00:26;;;;;;;19.52;10.20;;;18.80;46.20;;;;;;5056442;28;19996;-64
2021/10/09 13:02:51;;;;;;;21.90;9.20;;;18.80;44.20;;;;;;5056051;28;20052;-63
2021/10/09 13:05:25;;;;;;;21.60;8.98;;;18.70;44.20;;;;;;5056128;28;20041;-64
2021/10/09 13:07:52;;;;;;;16.63;8.68;;;18.70;43.80;;;;;;5054984;28;20063;-64
2021/10/09 13:10:20;;;;;;;15.02;8.38;;;18.80;43.70;;;;;;5056135;28;20021;-64
2021/10/09 13:12:46;;;;;;;18.70;8.40;;;18.80;43.90;;;;;;5056132;28;20014;-63
2021/10/09 13:15:17;;;;;;;21.00;9.55;;;18.70;43.20;;;;;;5056084;28;20078;-64
2021/10/09 13:17:43;;;;;;;18.88;8.57;;;18.80;42.90;;;;;;5054674;28;20386;-63
2021/10/09 13:20:10;;;;;;;21.15;8.77;;;18.70;42.70;;;;;;5055997;28;20534;-63
2021/10/09 13:22:35;;;;;;;20.10;8.02;;;18.80;42.80;;;;;;5055863;28;20029;-63
2021/10/09 13:25:02;;;;;;;15.90;8.30;;;18.80;43.20;;;;;;5055859;28;20155;-64
2021/10/09 13:27:27;;;;;;;18.83;8.88;;;18.70;42.30;;;;;;5055810;28;20029;-63
2021/10/09 13:29:53;;;;;;;21.38;8.55;;;18.70;41.60;;;;;;5055891;28;20032;-63
2021/10/09 13:32:19;;;;;;;18.42;8.25;;;18.70;41.60;;;;;;5055756;28;20021;-63
2021/10/09 13:34:45;;;;;;;15.25;7.30;;;18.70;41.50;;;;;;5055790;28;20367;-64
2021/10/09 13:37:19;;;;;;;21.15;7.68;;;18.70;41.80;;;;;;5055733;28;20467;-63
2021/10/09 13:39:44;;;;;;;;;;;18.70;41.90;;;;;;5056081;28;20482;-63
2021/10/09 13:42:10;;;;;;;26.00;8.50;;;18.80;43.30;;;;;;5055534;28;19952;-63
2021/10/09 13:44:36;;;;;;;14.52;7.60;;;18.80;40.70;;;;;;5055339;28;20028;-63
2021/10/09 13:47:01;;;;;;;18.27;7.25;;;18.70;41.00;;;;;;5055507;28;20063;-63
2021/10/09 13:49:27;;;;;;;12.80;6.95;;;18.70;40.70;;;;;;5055520;28;20021;-63
2021/10/09 13:51:53;;;;;;;17.58;8.02;;;18.70;41.40;;;;;;5055281;28;20056;-63
2021/10/09 13:54:18;;;;;;;16.05;7.35;;;18.70;41.30;;;;;;5055429;28;20040;-63
2021/10/09 13:56:44;;;;;;;13.25;7.13;;;18.70;40.60;;;;;;5055175;28;20039;-63
2021/10/09 13:59:10;;;;;;;13.63;7.75;;;18.70;40.90;;;;;;5055214;28;20083;-63
2021/10/09 14:01:36;;;;;;;10.50;6.05;;;18.70;40.30;;;;;;5055253;28;20154;-63
2021/10/09 14:04:02;;;;;;;12.32;6.80;;;18.70;41.20;;;;;;5054544;28;20083;-64
2021/10/09 14:06:27;;;;;;;20.45;7.90;;;18.70;40.70;;;;;;5055181;28;20432;-63
2021/10/09 14:08:53;;;;;;;23.65;7.57;;;18.80;41.40;;;;;;5054109;28;20025;-63
2021/10/09 14:11:21;;;;;;;16.27;7.65;;;18.80;40.80;;;;;;5055160;28;20055;-63
2021/10/09 14:13:47;;;;;;;18.70;7.75;;;18.90;40.90;;;;;;5055039;28;20079;-63
2021/10/09 14:16:13;;;;;;;19.17;8.10;;;19.00;39.90;;;;;;5055048;28;20382;-63
2021/10/09 14:18:39;;;;;;;18.40;7.90;;;19.00;39.70;;;;;;5055007;28;20033;-63
2021/10/09 14:21:05;;;;;;;15.25;7.55;;;19.10;40.20;;;;;;5054920;28;20078;-63
2021/10/09 14:23:31;;;;;;;14.82;7.10;;;19.20;40.20;;;;;;5054823;28;20032;-63
2021/10/09 14:25:56;;;;;;;20.83;8.38;;;19.20;39.80;;;;;;5054774;28;20025;-63
2021/10/09 14:28:22;;;;;;;15.00;7.90;;;19.30;39.50;;;;;;5054607;28;20033;-63
2021/10/09 14:30:50;;;;;;;13.82;6.88;;;19.30;39.60;;;;;;5054777;28;20021;-63
2021/10/09 14:33:16;;;;;;;18.25;7.35;;;19.40;39.90;;;;;;5054679;28;20090;-63
2021/10/09 14:35:42;;;;;;;19.25;7.50;;;19.40;38.20;;;;;;5054529;28;20040;-63
2021/10/09 14:38:08;;;;;;;20.08;6.75;;;19.50;38.80;;;;;;5054458;28;20483;-63
2021/10/09 14:40:33;;;;;;;13.43;7.15;;;19.50;38.50;;;;;;5054708;28;20123;-64
2021/10/09 14:42:59;;;;;;;11.80;6.28;;;19.60;38.30;;;;;;5054338;28;20025;-64
2021/10/09 14:45:26;;;;;;;16.85;6.40;;;19.70;38.00;;;;;;5054420;28;20478;-64